Time;durP1;ratioP1;P1;durP2;ratioP2;P2;SDS_P1;SDS_P2;PMS_P1;PMS_P2;Temp;Humidity;BMP_temperature;BMP_pressure;BME280_temperature;BME280_humidity;BME280_pressure;Samples;Min_cycle;Max_cycle;Signal;HPM_P1;HPM_P2
2023/05/20 00:01:31;;;;;;;2.85;1.67;;;;;;;11.48;66.88;101821.22;4945289;29;20047;-81
2023/05/20 00:03:57;;;;;;;4.65;1.40;;;;;;;11.45;67.59;101818.59;4946394;29;20390;-81
2023/05/20 00:06:24;;;;;;;1.77;1.15;;;;;;;11.41;67.13;101822.91;4939512;29;20896;-87
2023/05/20 00:08:50;;;;;;;1.77;1.55;;;;;;;11.38;67.75;101809.78;4937787;29;20055;-81
2023/05/20 00:11:17;;;;;;;2.83;1.52;;;;;;;11.36;68.19;101816.78;4940843;29;20055;-84
2023/05/20 00:13:49;;;;;;;2.88;0.90;;;;;;;11.37;68.51;101818.53;4942039;29;20095;-88
2023/05/20 00:16:16;;;;;;;2.75;1.20;;;;;;;11.36;68.34;101811.53;4942925;29;20043;-82
2023/05/20 00:18:42;;;;;;;4.65;1.48;;;;;;;11.32;68.43;101809.75;4941655;28;20110;-81
2023/05/20 00:21:09;;;;;;;2.83;1.40;;;;;;;11.29;68.31;101810.63;4942885;29;20803;-81
2023/05/20 00:23:35;;;;;;;3.80;1.55;;;;;;;11.24;68.52;101801.84;4932249;29;20051;-87
2023/05/20 00:26:02;;;;;;;2.28;1.63;;;;;;;11.19;69.36;101808.78;4940725;29;20481;-81
2023/05/20 00:28:29;;;;;;;1.63;1.35;;;;;;;11.27;69.24;101808.84;4937198;28;20097;-80
2023/05/20 00:30:55;;;;;;;2.33;1.50;;;;;;;11.21;69.71;101807.94;4947625;29;20669;-82
2023/05/20 00:33:22;;;;;;;1.45;1.38;;;;;;;11.14;69.71;101814.00;4946367;29;20047;-80
2023/05/20 00:35:48;;;;;;;3.60;1.83;;;;;;;11.14;69.90;101806.13;4941950;29;20441;-81
2023/05/20 00:38:15;;;;;;;2.25;1.30;;;;;;;11.08;70.66;101806.06;4948437;28;20485;-82
2023/05/20 00:40:41;;;;;;;1.70;1.08;;;;;;;11.06;70.30;101802.59;4945387;29;20055;-81
2023/05/20 00:43:10;;;;;;;1.95;1.48;;;;;;;11.12;70.44;101783.41;4942868;29;20044;-82
2023/05/20 00:45:37;;;;;;;3.20;2.28;;;;;;;11.06;70.27;101792.97;4943341;29;20039;-84
2023/05/20 00:48:05;;;;;;;1.10;1.10;;;;;;;11.02;70.08;101799.06;4941338;29;20102;-90
2023/05/20 00:50:32;;;;;;;2.78;1.13;;;;;;;10.98;70.79;101793.78;4931534;29;20054;-84
2023/05/20 00:52:58;;;;;;;2.25;1.25;;;;;;;10.88;71.09;101804.19;4927937;29;20130;-82
2023/05/20 00:55:26;;;;;;;1.40;1.30;;;;;;;10.84;71.31;101806.78;4928567;29;20683;-83
2023/05/20 00:57:53;;;;;;;1.70;1.60;;;;;;;10.76;71.91;101802.31;4941436;29;20047;-83
2023/05/20 01:00:19;;;;;;;1.67;1.58;;;;;;;10.76;71.94;101801.47;4940960;29;20046;-81
2023/05/20 01:02:46;;;;;;;1.35;1.10;;;;;;;10.71;71.89;101803.16;4947563;29;20043;-80
2023/05/20 01:05:12;;;;;;;2.28;1.38;;;;;;;10.72;71.99;101800.56;4946277;29;20050;-81
2023/05/20 01:07:39;;;;;;;1.30;1.20;;;;;;;10.72;71.61;101803.16;4945303;29;20062;-81
2023/05/20 01:10:07;;;;;;;2.08;1.48;;;;;;;10.77;71.20;101800.59;4941024;28;20098;-86
2023/05/20 01:12:57;;;;;;;1.33;1.23;;;;;;;10.74;71.03;101797.94;4950384;29;20062;-81
2023/05/20 01:15:27;;;;;;;1.58;1.48;;;;;;;10.70;71.27;101804.03;4935934;29;20063;-81
2023/05/20 01:18:00;;;;;;;2.08;1.80;;;;;;;10.66;71.11;101794.38;4948233;29;20055;-81
2023/05/20 01:20:29;;;;;;;1.95;1.40;;;;;;;10.67;71.49;101796.16;4950158;28;20051;-84
2023/05/20 01:22:56;;;;;;;2.00;1.80;;;;;;;10.61;71.54;101788.22;4950456;29;20668;-81
2023/05/20 01:25:25;;;;;;;1.58;1.20;;;;;;;10.61;71.66;101794.34;4921582;29;20047;-83
2023/05/20 01:27:52;;;;;;;2.00;1.20;;;;;;;10.62;71.81;101792.63;4919335;29;20055;-82
2023/05/20 01:30:21;;;;;;;3.35;1.40;;;;;;;10.65;71.61;101784.78;4903547;29;20052;-80
2023/05/20 01:32:54;;;;;;;1.73;1.23;;;;;;;10.60;71.31;101789.97;4904413;29;20538;-86
2023/05/20 01:35:22;;;;;;;1.73;1.45;;;;;;;10.57;71.40;101784.69;4918737;29;20051;-81
2023/05/20 01:37:50;;;;;;;0.90;0.90;;;;;;;10.48;71.43;101780.28;4913909;29;20047;-92
2023/05/20 01:40:18;;;;;;;3.08;1.40;;;;;;;10.45;71.80;101785.47;4915643;29;20059;-81
2023/05/20 01:42:45;;;;;;;5.20;1.33;;;;;;;10.42;71.96;101786.31;4921524;29;20043;-85
2023/05/20 01:45:12;;;;;;;1.20;1.08;;;;;;;10.43;71.60;101776.75;4934772;29;20041;-80
2023/05/20 01:47:39;;;;;;;2.00;1.30;;;;;;;10.40;72.12;101780.19;4915297;29;20044;-84
2023/05/20 01:50:07;;;;;;;1.50;1.38;;;;;;;10.36;72.43;101788.84;4917384;29;20058;-85
2023/05/20 01:52:33;;;;;;;1.75;1.00;;;;;;;10.28;72.41;101777.41;4918576;29;20127;-82
2023/05/20 01:55:00;;;;;;;1.90;1.17;;;;;;;10.24;72.85;101780.84;4918840;29;20754;-82
2023/05/20 01:57:27;;;;;;;1.30;1.20;;;;;;;10.20;72.89;101777.31;4917894;29;20047;-88
2023/05/20 01:59:53;;;;;;;2.17;0.82;;;;;;;10.18;72.69;101768.59;4916564;29;20146;-81
2023/05/20 02:02:20;;;;;;;1.23;1.13;;;;;;;10.14;72.69;101782.47;4921647;29;20040;-81
2023/05/20 02:04:48;;;;;;;1.17;1.08;;;;;;;10.11;73.03;101772.00;4922307;29;20044;-82
2023/05/20 02:07:18;;;;;;;1.17;0.82;;;;;;;10.09;73.55;101769.38;4921414;29;20040;-86
2023/05/20 02:09:45;;;;;;;1.60;0.90;;;;;;;10.07;73.14;101771.09;4917126;29;20985;-90
2023/05/20 02:12:15;;;;;;;1.17;1.08;;;;;;;10.07;73.39;101778.06;4919626;29;20050;-82
2023/05/20 02:14:46;;;;;;;1.38;1.08;;;;;;;10.06;73.65;101781.53;4918747;29;20040;-86
2023/05/20 02:17:17;;;;;;;1.35;0.80;;;;;;;10.07;73.58;101770.22;4918607;29;20036;-81
2023/05/20 02:19:46;;;;;;;1.60;0.95;;;;;;;10.02;73.36;101770.16;4913338;29;20064;-81
2023/05/20 02:22:14;;;;;;;2.00;0.68;;;;;;;9.99;73.76;101772.75;4923851;29;20046;-81
2023/05/20 02:24:42;;;;;;;3.22;1.13;;;;;;;9.96;73.49;101774.44;4933244;29;20078;-88
2023/05/20 02:27:11;;;;;;;1.25;1.15;;;;;;;9.92;73.77;101771.78;4952510;29;20051;-83
2023/05/20 02:29:38;;;;;;;1.60;1.10;;;;;;;9.92;74.58;101765.66;4949085;29;20514;-80
2023/05/20 02:32:05;;;;;;;0.93;0.85;;;;;;;9.90;74.41;101770.88;4956536;29;20490;-81
2023/05/20 02:34:32;;;;;;;1.65;0.90;;;;;;;9.87;74.65;101768.25;4947234;29;20060;-80
2023/05/20 02:36:58;;;;;;;1.17;1.05;;;;;;;9.87;74.45;101777.84;4949744;29;20054;-81
2023/05/20 02:39:27;;;;;;;2.97;0.93;;;;;;;9.88;74.44;101777.84;4951319;28;20051;-85
2023/05/20 02:41:53;;;;;;;3.67;1.65;;;;;;;9.86;75.00;101776.09;4948433;29;20047;-80
2023/05/20 02:44:20;;;;;;;2.80;1.20;;;;;;;9.90;74.89;101770.88;4951818;29;20045;-80
2023/05/20 02:46:46;;;;;;;1.90;1.30;;;;;;;9.94;74.87;101780.53;4951175;29;20071;-84
2023/05/20 02:49:13;;;;;;;1.00;0.80;;;;;;;9.96;74.31;101784.91;4953256;29;20044;-84
2023/05/20 02:51:40;;;;;;;1.85;1.17;;;;;;;10.02;74.64;101783.22;4947635;29;20447;-81
2023/05/20 02:54:07;;;;;;;2.22;1.25;;;;;;;10.06;74.46;101781.53;4943115;29;20066;-80
2023/05/20 02:56:33;;;;;;;1.02;0.93;;;;;;;10.09;74.46;101777.22;4951345;29;20277;-83
2023/05/20 02:59:00;;;;;;;3.83;2.53;;;;;;;10.08;74.09;101772.84;4944237;29;20098;-80
2023/05/20 03:01:31;;;;;;;3.92;1.33;;;;;;;10.11;74.30;101774.63;4952318;29;20039;-83
2023/05/20 03:03:57;;;;;;;1.40;1.02;;;;;;;10.11;74.18;101777.22;4945456;29;20055;-82
2023/05/20 03:06:24;;;;;;;1.60;1.05;;;;;;;10.08;74.21;101771.97;4944698;29;20046;-82
2023/05/20 03:08:50;;;;;;;2.22;1.63;;;;;;;10.07;74.64;101773.69;4928211;29;20494;-84
2023/05/20 03:11:16;;;;;;;3.13;1.65;;;;;;;10.07;74.34;101776.31;4931075;29;20047;-84
2023/05/20 03:13:43;;;;;;;1.42;1.30;;;;;;;10.10;74.99;101778.09;4931316;29;20059;-83
2023/05/20 03:16:11;;;;;;;1.23;1.10;;;;;;;10.12;74.13;101773.75;4950558;28;20442;-83
2023/05/20 03:18:39;;;;;;;1.23;1.15;;;;;;;10.09;74.85;101776.34;4939212;29;20044;-81
2023/05/20 03:21:05;;;;;;;1.85;1.38;;;;;;;10.10;74.32;101781.59;4936135;29;20459;-90
2023/05/20 03:23:32;;;;;;;1.20;1.10;;;;;;;10.07;74.58;101771.09;4944120;29;20058;-81
2023/05/20 03:25:58;;;;;;;4.68;1.27;;;;;;;10.05;75.02;101775.44;4928313;29;20142;-84
2023/05/20 03:28:25;;;;;;;1.70;1.52;;;;;;;10.04;75.19;101776.28;4946869;28;20047;-81
2023/05/20 03:30:53;;;;;;;1.30;1.20;;;;;;;10.04;74.97;101780.66;4949914;29;20102;-81
2023/05/20 03:33:21;;;;;;;1.85;1.30;;;;;;;10.04;75.28;101783.28;4939814;28;20039;-85
2023/05/20 03:35:48;;;;;;;1.75;1.63;;;;;;;10.06;75.02;101784.16;4945760;29;20043;-81
2023/05/20 03:38:14;;;;;;;2.90;1.50;;;;;;;10.08;75.01;101785.94;4947330;29;20142;-80
2023/05/20 03:40:41;;;;;;;2.75;1.00;;;;;;;10.13;74.87;101779.84;4945492;29;20051;-87
2023/05/20 03:43:07;;;;;;;1.05;0.90;;;;;;;10.18;74.54;101778.16;4946746;29;20074;-81
2023/05/20 03:45:34;;;;;;;1.40;1.27;;;;;;;10.22;74.77;101780.84;4927968;29;20400;-81
2023/05/20 03:48:02;;;;;;;2.05;1.33;;;;;;;10.26;74.62;101774.78;4942924;29;20081;-81
2023/05/20 03:50:29;;;;;;;2.47;1.38;;;;;;;10.31;74.13;101780.06;4940386;29;20500;-80
2023/05/20 03:52:56;;;;;;;2.33;1.05;;;;;;;10.32;74.25;101781.81;4943675;29;20070;-81
2023/05/20 03:55:23;;;;;;;1.35;1.20;;;;;;;10.37;74.13;101789.75;4943797;29;20066;-81
2023/05/20 03:57:50;;;;;;;2.35;1.15;;;;;;;10.42;74.02;101788.06;4945282;29;20058;-82
2023/05/20 04:00:17;;;;;;;1.40;1.30;;;;;;;10.48;73.56;101790.75;4948044;29;20047;-86
2023/05/20 04:02:44;;;;;;;1.98;1.80;;;;;;;10.52;73.76;101799.50;4950300;29;20569;-83
2023/05/20 04:05:10;;;;;;;3.88;1.48;;;;;;;10.54;73.35;101792.53;4938256;29;20051;-83
2023/05/20 04:07:37;;;;;;;1.67;1.10;;;;;;;10.56;73.54;101786.44;4949521;29;20067;-82
2023/05/20 04:10:05;;;;;;;1.65;1.00;;;;;;;10.58;73.35;101786.47;4940907;29;20036;-81
2023/05/20 04:12:31;;;;;;;1.95;1.52;;;;;;;10.59;72.87;101791.72;4939100;29;20039;-81
2023/05/20 04:15:00;;;;;;;3.22;1.25;;;;;;;10.61;72.71;101790.84;4946965;29;20051;-81
2023/05/20 04:17:30;;;;;;;1.02;0.98;;;;;;;10.64;73.13;101788.25;4943712;29;20458;-81
2023/05/20 04:19:58;;;;;;;4.15;1.23;;;;;;;10.71;72.46;101790.06;4946560;29;20058;-86
2023/05/20 04:22:26;;;;;;;1.67;1.00;;;;;;;10.73;72.19;101785.75;4948973;29;20047;-81
2023/05/20 04:24:52;;;;;;;1.73;1.27;;;;;;;10.76;71.93;101784.00;4954864;28;20075;-81
2023/05/20 04:27:20;;;;;;;1.00;0.98;;;;;;;10.80;71.26;101778.81;4953601;29;20047;-81
2023/05/20 04:29:47;;;;;;;3.50;1.20;;;;;;;10.81;71.01;101780.53;4945838;29;20053;-81
2023/05/20 04:32:19;;;;;;;0.95;0.93;;;;;;;10.84;71.21;101789.31;4944256;29;20500;-80
2023/05/20 04:34:49;;;;;;;2.55;1.90;;;;;;;10.89;71.11;101784.13;4946611;29;20043;-81
2023/05/20 04:37:16;;;;;;;1.77;1.40;;;;;;;10.89;71.13;101784.13;4947000;29;20062;-80
2023/05/20 04:39:42;;;;;;;4.80;1.67;;;;;;;10.89;71.32;101781.50;4948313;29;20482;-80
2023/05/20 04:42:09;;;;;;;1.60;1.50;;;;;;;10.89;71.59;101781.50;4942436;29;20074;-80
2023/05/20 04:44:35;;;;;;;1.05;0.95;;;;;;;10.90;71.49;101778.00;4952817;28;20145;-81
2023/05/20 04:47:03;;;;;;;2.72;1.63;;;;;;;10.92;71.23;101776.25;4952044;28;20539;-82
2023/05/20 04:49:34;;;;;;;3.20;1.35;;;;;;;10.93;71.43;101770.16;4948653;29;20035;-81
2023/05/20 04:52:00;;;;;;;5.22;2.22;;;;;;;10.96;71.65;101772.78;4948616;29;20095;-88
2023/05/20 04:54:27;;;;;;;2.92;1.25;;;;;;;10.98;72.08;101764.97;4939555;29;20053;-81
2023/05/20 04:56:53;;;;;;;1.77;1.08;;;;;;;10.98;71.92;101767.59;4954535;29;20043;-80
2023/05/20 04:59:20;;;;;;;3.00;1.73;;;;;;;10.98;72.49;101771.09;4946763;29;20047;-83
2023/05/20 05:01:46;;;;;;;3.00;1.50;;;;;;;11.00;72.41;101766.75;4949658;28;20501;-82
2023/05/20 05:04:13;;;;;;;1.40;1.20;;;;;;;11.01;72.33;101763.22;4942250;29;20046;-82
2023/05/20 05:06:39;;;;;;;2.38;1.42;;;;;;;11.05;72.10;101775.47;4953523;28;20043;-81
2023/05/20 05:09:06;;;;;;;1.30;1.20;;;;;;;11.05;72.46;101765.00;4935824;29;20043;-85
2023/05/20 05:11:33;;;;;;;1.92;1.25;;;;;;;11.07;72.43;101765.91;4954995;28;20043;-82
2023/05/20 05:14:00;;;;;;;3.13;1.52;;;;;;;11.10;72.54;101762.44;4950381;29;20047;-88
2023/05/20 05:16:26;;;;;;;4.85;1.75;;;;;;;11.13;72.93;101761.56;4953119;29;20050;-86
2023/05/20 05:18:52;;;;;;;2.10;1.63;;;;;;;11.14;73.02;101764.19;4948434;28;20063;-81
2023/05/20 05:21:19;;;;;;;1.38;1.25;;;;;;;11.16;73.25;101765.09;4958754;28;20089;-83
2023/05/20 05:23:46;;;;;;;2.75;1.73;;;;;;;11.21;72.89;101760.75;4941047;29;20051;-80
2023/05/20 05:26:12;;;;;;;1.73;1.55;;;;;;;11.28;73.42;101758.16;4953272;28;20043;-81
2023/05/20 05:28:42;;;;;;;3.90;1.63;;;;;;;11.29;73.67;101760.81;4956252;29;20069;-81
2023/05/20 05:31:09;;;;;;;3.00;1.80;;;;;;;11.32;73.68;101752.09;4937876;29;20098;-81
2023/05/20 05:33:35;;;;;;;3.30;2.10;;;;;;;11.35;73.47;101755.56;4958482;28;20062;-81
2023/05/20 05:36:03;;;;;;;1.73;1.63;;;;;;;11.36;73.22;101752.09;4962693;28;20054;-81
2023/05/20 05:38:33;;;;;;;1.67;1.58;;;;;;;11.36;72.91;101754.72;4943184;29;20047;-81
2023/05/20 05:40:59;;;;;;;1.48;1.35;;;;;;;11.36;73.70;101749.47;4952575;29;20062;-81
2023/05/20 05:43:26;;;;;;;3.72;1.95;;;;;;;11.36;73.83;101753.84;4934482;29;20081;-87
2023/05/20 05:45:52;;;;;;;3.60;1.60;;;;;;;11.38;74.10;101750.38;4952102;29;20062;-80
2023/05/20 05:48:19;;;;;;;2.92;1.55;;;;;;;11.40;74.00;101753.00;4954640;29;20162;-82
2023/05/20 05:50:46;;;;;;;2.05;1.45;;;;;;;11.42;73.44;101756.50;4933919;28;20042;-85
2023/05/20 05:53:13;;;;;;;2.13;1.92;;;;;;;11.44;73.78;101757.38;4953952;28;20035;-81
2023/05/20 05:55:39;;;;;;;1.77;1.67;;;;;;;11.49;73.51;101760.91;4938724;28;20478;-84
2023/05/20 05:58:06;;;;;;;2.20;2.00;;;;;;;11.50;74.03;101752.19;4949994;28;20478;-85
2023/05/20 06:00:32;;;;;;;2.65;1.67;;;;;;;11.51;73.78;101760.91;4951560;29;20090;-85
2023/05/20 06:02:58;;;;;;;1.88;1.75;;;;;;;11.51;74.16;101759.19;4954398;28;20046;-81
2023/05/20 06:05:25;;;;;;;2.08;1.77;;;;;;;11.52;74.19;101763.53;4948478;29;20047;-80
2023/05/20 06:07:51;;;;;;;3.50;1.90;;;;;;;11.55;73.84;101760.94;4953269;29;20462;-81
2023/05/20 06:10:18;;;;;;;5.43;1.63;;;;;;;11.59;74.40;101757.47;4950473;29;20395;-81
2023/05/20 06:12:45;;;;;;;1.83;1.60;;;;;;;11.65;74.36;101751.34;4950617;29;20047;-81
2023/05/20 06:15:12;;;;;;;5.57;1.92;;;;;;;11.74;74.28;101751.38;4946827;29;20481;-82
2023/05/20 06:17:38;;;;;;;2.53;1.63;;;;;;;11.75;74.23;101753.16;4945682;29;20452;-80
2023/05/20 06:20:09;;;;;;;2.78;2.03;;;;;;;11.81;74.35;101749.69;4946604;29;20045;-83
2023/05/20 06:22:35;;;;;;;4.45;1.88;;;;;;;11.88;74.08;101745.34;4953797;28;20039;-81
2023/05/20 06:25:02;;;;;;;1.50;1.40;;;;;;;11.92;74.18;101747.97;4942257;29;20065;-81
2023/05/20 06:27:28;;;;;;;5.70;2.30;;;;;;;12.01;74.04;101755.03;4948469;29;20154;-82
2023/05/20 06:29:55;;;;;;;2.63;1.80;;;;;;;12.16;73.93;101753.31;4950558;29;20058;-81
2023/05/20 06:32:21;;;;;;;3.88;2.20;;;;;;;12.28;73.24;101753.34;4936606;29;20132;-84
2023/05/20 06:34:48;;;;;;;4.07;2.17;;;;;;;12.41;72.34;101751.59;4951203;29;20047;-82
2023/05/20 06:37:15;;;;;;;3.30;2.83;;;;;;;12.54;72.10;101758.63;4970380;28;20051;-81
2023/05/20 06:39:41;;;;;;;7.57;3.03;;;;;;;12.67;71.70;101759.50;4940263;29;20165;-80
2023/05/20 06:42:08;;;;;;;2.35;1.88;;;;;;;12.82;70.81;101752.50;4939834;29;20347;-83
2023/05/20 06:44:34;;;;;;;5.28;2.47;;;;;;;12.88;70.98;101745.47;4947075;28;20052;-84
2023/05/20 06:47:01;;;;;;;2.95;1.95;;;;;;;12.98;70.52;101751.56;4920083;29;20050;-82
2023/05/20 06:49:27;;;;;;;4.05;1.90;;;;;;;12.99;70.65;101737.56;4937638;29;20039;-84
2023/05/20 06:51:56;;;;;;;2.35;2.00;;;;;;;13.02;70.63;101742.84;4955216;29;20066;-88
2023/05/20 06:54:24;;;;;;;1.80;1.63;;;;;;;13.04;70.69;101737.56;4944359;29;20139;-79
2023/05/20 06:56:51;;;;;;;4.57;1.90;;;;;;;13.10;71.03;101737.53;4946964;29;20132;-84
2023/05/20 06:59:17;;;;;;;2.28;2.00;;;;;;;13.23;70.53;101746.28;4946433;29;20047;-81
2023/05/20 07:01:44;;;;;;;3.10;2.40;;;;;;;13.47;69.43;101736.63;4939707;29;20047;-82
2023/05/20 07:04:10;;;;;;;2.72;2.50;;;;;;;13.65;68.87;101731.28;4952291;29;20043;-80
2023/05/20 07:06:37;;;;;;;6.65;2.40;;;;;;;13.75;68.32;101736.50;4954786;29;20051;-84
2023/05/20 07:09:04;;;;;;;3.40;2.30;;;;;;;13.77;67.79;101726.84;4938819;29;20054;-81
2023/05/20 07:11:30;;;;;;;7.32;2.25;;;;;;;13.77;67.52;101727.72;4933491;29;20135;-82
2023/05/20 07:13:57;;;;;;;2.67;2.08;;;;;;;13.83;67.54;101721.53;4949025;28;20051;-81
2023/05/20 07:16:24;;;;;;;4.30;2.50;;;;;;;14.01;66.85;101720.56;4949024;29;20050;-81
2023/05/20 07:18:50;;;;;;;2.47;2.00;;;;;;;14.22;65.67;101719.53;4955189;29;20107;-83
2023/05/20 07:21:17;;;;;;;3.55;3.10;;;;;;;14.39;65.12;101716.78;4949740;29;20150;-82
2023/05/20 07:23:44;;;;;;;1.98;1.42;;;;;;;14.58;63.73;101717.50;4951306;29;20130;-82
2023/05/20 07:26:11;;;;;;;6.65;2.22;;;;;;;14.93;62.29;101715.44;4953551;29;20043;-82
2023/05/20 07:28:38;;;;;;;2.72;2.33;;;;;;;15.27;60.26;101713.34;4947758;29;20036;-89
2023/05/20 07:31:05;;;;;;;2.30;1.95;;;;;;;15.55;59.29;101718.25;4949977;29;20039;-83
2023/05/20 07:33:31;;;;;;;2.85;2.20;;;;;;;15.76;57.96;101716.25;4951616;29;20035;-84
2023/05/20 07:35:58;;;;;;;9.35;1.85;;;;;;;16.05;57.37;101715.88;4935155;29;20043;-82
2023/05/20 07:38:27;;;;;;;4.70;2.30;;;;;;;16.30;56.21;101707.56;4947336;29;20043;-83
2023/05/20 07:40:55;;;;;;;2.17;2.03;;;;;;;16.49;55.39;101700.19;4945527;29;20483;-80
2023/05/20 07:43:22;;;;;;;1.83;1.58;;;;;;;16.69;54.98;101710.44;4954567;29;20070;-80
2023/05/20 07:45:49;;;;;;;2.72;1.90;;;;;;;16.75;53.96;101709.47;4944407;28;20062;-84
2023/05/20 07:48:16;;;;;;;1.98;1.60;;;;;;;16.74;53.32;101700.66;4951294;28;20035;-81
2023/05/20 07:50:42;;;;;;;3.85;2.22;;;;;;;16.70;52.88;101694.56;4942673;29;20096;-81
2023/05/20 07:53:10;;;;;;;1.95;1.63;;;;;;;16.40;52.49;101701.25;4937896;29;20127;-81
2023/05/20 07:55:37;;;;;;;3.67;1.48;;;;;;;16.30;53.13;101720.78;4946544;29;20066;-84
2023/05/20 07:58:07;;;;;;;2.45;2.15;;;;;;;16.32;53.11;101717.22;4948208;29;20043;-81
2023/05/20 08:00:34;;;;;;;2.38;1.85;;;;;;;16.39;53.07;101704.78;4955157;29;20075;-81
2023/05/20 08:03:01;;;;;;;2.05;1.50;;;;;;;16.60;52.09;101694.75;4943630;29;20040;-81
2023/05/20 08:05:28;;;;;;;2.67;2.08;;;;;;;16.64;51.97;101702.59;4967670;28;20051;-85
2023/05/20 08:07:55;;;;;;;3.47;1.35;;;;;;;16.60;52.53;101697.41;4955722;29;20040;-80
2023/05/20 08:10:22;;;;;;;2.30;1.70;;;;;;;16.67;52.19;101696.38;4935918;29;20098;-84
2023/05/20 08:12:48;;;;;;;2.70;1.35;;;;;;;16.85;52.29;101688.09;4950341;29;20102;-83
2023/05/20 08:15:15;;;;;;;2.30;1.85;;;;;;;16.99;51.29;101687.03;4948930;29;20035;-83
2023/05/20 08:17:41;;;;;;;1.65;1.55;;;;;;;17.22;51.39;101686.53;4952768;28;20039;-91
2023/05/20 08:20:09;;;;;;;2.88;1.90;;;;;;;17.52;50.65;101687.69;4948483;28;20047;-81
2023/05/20 08:22:36;;;;;;;1.92;1.70;;;;;;;17.76;50.48;101682.75;4947385;29;20054;-81
2023/05/20 08:25:03;;;;;;;2.00;1.83;;;;;;;17.71;50.09;101686.44;4936713;29;20114;-83
2023/05/20 08:27:29;;;;;;;1.42;1.42;;;;;;;17.84;49.15;101674.66;4950057;29;20118;-81
2023/05/20 08:29:56;;;;;;;4.78;2.00;;;;;;;18.27;47.88;101668.34;4937756;29;20923;-82
2023/05/20 08:32:22;;;;;;;2.78;1.88;;;;;;;19.38;45.91;101684.88;4950657;29;20058;-83
2023/05/20 08:34:49;;;;;;;1.75;1.65;;;;;;;20.12;43.76;101695.91;4947718;29;20090;-80
2023/05/20 08:37:15;;;;;;;4.30;1.92;;;;;;;20.29;43.16;101680.25;4936267;29;20047;-84
2023/05/20 08:39:45;;;;;;;1.90;1.77;;;;;;;20.33;42.77;101673.06;4933198;29;20048;-80
2023/05/20 08:42:12;;;;;;;2.97;1.85;;;;;;;19.66;43.82;101680.47;4954611;29;21045;-81
2023/05/20 08:44:41;;;;;;;4.43;1.50;;;;;;;19.63;44.25;101661.97;4938143;29;20050;-86
2023/05/20 08:47:08;;;;;;;4.65;1.98;;;;;;;19.23;45.39;101671.13;4953513;29;20047;-81
2023/05/20 08:49:35;;;;;;;2.60;1.95;;;;;;;19.57;45.19;101662.16;4952104;29;20541;-85
2023/05/20 08:52:03;;;;;;;1.75;1.65;;;;;;;20.01;43.90;101661.69;4956852;28;20071;-82
2023/05/20 08:54:49;;;;;;;2.30;1.48;;;;;;;19.74;44.50;101674.91;4957433;29;20055;-81
2023/05/20 08:57:16;;;;;;;2.25;2.05;;;;;;;19.20;45.61;101679.16;4956365;29;20043;-81
2023/05/20 08:59:45;;;;;;;3.00;2.40;;;;;;;18.63;47.15;101673.63;4943404;29;20102;-81
2023/05/20 09:02:12;;;;;;;3.67;1.95;;;;;;;18.07;48.43;101676.78;4955793;29;20482;-85
2023/05/20 09:04:38;;;;;;;3.17;1.70;;;;;;;17.63;49.80;101683.94;4958198;28;20047;-84
2023/05/20 09:07:05;;;;;;;2.67;2.03;;;;;;;17.38;50.78;101679.19;4940457;29;20039;-84
2023/05/20 09:09:34;;;;;;;2.40;1.98;;;;;;;17.01;51.88;101679.91;4952854;29;20054;-83
2023/05/20 09:12:03;;;;;;;4.32;2.50;;;;;;;16.64;52.96;101678.78;4951821;29;20047;-81
2023/05/20 09:14:31;;;;;;;4.03;1.85;;;;;;;16.34;54.32;101674.91;4948724;29;20046;-81
2023/05/20 09:16:57;;;;;;;1.90;1.80;;;;;;;16.28;54.83;101675.00;4935583;29;20578;-81
2023/05/20 09:19:25;;;;;;;2.80;2.60;;;;;;;16.31;54.41;101677.59;4950153;29;20475;-84
2023/05/20 09:21:57;;;;;;;2.70;1.80;;;;;;;16.34;54.72;101678.41;4951894;29;20051;-81
2023/05/20 09:24:25;;;;;;;1.58;1.48;;;;;;;16.28;54.86;101685.59;4949453;29;20063;-81
2023/05/20 09:26:56;;;;;;;2.20;1.42;;;;;;;16.42;54.67;101680.06;4936287;29;20053;-81
2023/05/20 09:29:23;;;;;;;3.58;1.67;;;;;;;16.48;54.33;101677.34;4950217;29;20039;-82
2023/05/20 09:31:50;;;;;;;3.00;1.55;;;;;;;16.34;55.05;101677.56;4948671;28;20103;-83
2023/05/20 09:34:17;;;;;;;2.78;1.77;;;;;;;16.10;55.46;101681.47;4952696;29;20058;-83
2023/05/20 09:36:44;;;;;;;2.15;1.48;;;;;;;15.87;56.20;101680.03;4953092;29;20069;-86
2023/05/20 09:39:15;;;;;;;1.83;1.63;;;;;;;15.80;56.62;101678.34;4936374;29;20094;-81
2023/05/20 09:42:07;;;;;;;3.00;2.00;;;;;;;15.73;57.07;101679.34;4951194;29;20513;-81
2023/05/20 09:44:34;;;;;;;2.17;1.98;;;;;;;15.55;57.71;101684.84;4953988;29;20039;-82
2023/05/20 09:47:01;;;;;;;2.15;1.60;;;;;;;15.50;57.70;101675.22;4949750;29;20122;-82
2023/05/20 09:49:29;;;;;;;3.20;1.83;;;;;;;15.59;57.08;101672.50;4956369;28;20039;-82
2023/05/20 09:51:57;;;;;;;2.63;1.70;;;;;;;15.68;56.59;101671.47;4948901;29;20043;-83
2023/05/20 09:54:25;;;;;;;2.90;2.00;;;;;;;15.76;56.36;101669.63;4935858;29;20407;-82
2023/05/20 09:56:54;;;;;;;1.92;1.70;;;;;;;15.85;55.69;101665.97;4951285;29;20066;-83
2023/05/20 09:59:22;;;;;;;3.42;1.35;;;;;;;15.99;55.53;101671.06;4930975;29;20782;-83
2023/05/20 10:01:48;;;;;;;2.08;1.85;;;;;;;15.93;55.98;101671.16;4951448;29;20055;-86
2023/05/20 10:04:17;;;;;;;1.88;1.77;;;;;;;15.81;56.54;101682.75;4950626;29;20045;-83
2023/05/20 10:06:55;;;;;;;1.40;1.30;;;;;;;15.68;57.20;101669.72;4951083;29;20132;-83
2023/05/20 10:09:53;;;;;;;1.58;1.48;;;;;;;15.70;56.81;101674.97;4953393;28;20047;-82
2023/05/20 10:12:47;;;;;;;1.45;1.17;;;;;;;15.64;56.83;101680.34;4947827;29;20139;-83
2023/05/20 10:15:29;;;;;;;2.25;1.63;;;;;;;15.61;57.20;101669.81;4950226;29;20054;-83
2023/05/20 10:18:09;;;;;;;2.00;1.70;;;;;;;15.64;57.61;101670.63;4950469;29;20506;-82
2023/05/20 10:20:47;;;;;;;2.13;1.95;;;;;;;15.68;57.41;101671.47;4953593;29;20066;-86
2023/05/20 10:23:31;;;;;;;1.92;1.40;;;;;;;15.71;57.69;101656.47;4948775;28;20046;-82
2023/05/20 10:25:58;;;;;;;1.75;1.60;;;;;;;15.68;57.58;101660.91;4934387;29;20388;-83
2023/05/20 10:28:30;;;;;;;2.05;1.60;;;;;;;15.61;58.50;101670.69;4953804;28;20047;-82
2023/05/20 10:30:58;;;;;;;1.50;1.40;;;;;;;15.55;58.71;101676.03;4948653;29;20772;-83
2023/05/20 10:33:27;;;;;;;3.55;1.60;;;;;;;15.48;59.15;101664.69;4952255;29;20051;-83
2023/05/20 10:35:57;;;;;;;1.63;1.50;;;;;;;15.41;59.63;101659.53;4950335;29;20145;-84
2023/05/20 10:38:24;;;;;;;1.67;1.58;;;;;;;15.37;59.83;101669.25;4934518;29;20434;-82
2023/05/20 10:40:52;;;;;;;4.65;1.77;;;;;;;15.47;59.89;101668.22;4951399;29;20138;-82
2023/05/20 10:43:28;;;;;;;2.72;1.60;;;;;;;15.78;59.01;101661.66;4951814;28;20039;-82
2023/05/20 10:45:58;;;;;;;1.60;1.50;;;;;;;16.23;57.19;101651.31;4946605;29;20521;-87
2023/05/20 10:48:31;;;;;;;3.25;1.88;;;;;;;17.20;54.77;101644.25;4948285;29;20054;-83
2023/05/20 10:51:03;;;;;;;2.13;1.75;;;;;;;18.39;50.83;101642.44;4952245;29;20090;-84
2023/05/20 10:53:39;;;;;;;2.55;1.70;;;;;;;18.25;50.59;101646.31;4952663;29;20085;-85
2023/05/20 10:56:06;;;;;;;2.30;2.10;;;;;;;17.99;50.87;101639.88;4947947;29;20043;-91
2023/05/20 10:58:39;;;;;;;2.00;1.77;;;;;;;17.80;51.60;101644.69;4948033;29;20506;-83
2023/05/20 11:01:07;;;;;;;1.98;1.88;;;;;;;17.66;52.29;101629.16;4945697;29;20046;-89
2023/05/20 11:03:35;;;;;;;3.33;1.95;;;;;;;17.62;52.42;101630.09;4939776;29;20122;-83
2023/05/20 11:06:01;;;;;;;2.85;2.40;;;;;;;17.86;52.24;101633.13;4946577;29;20047;-86
2023/05/20 11:08:30;;;;;;;2.55;1.98;;;;;;;17.98;51.33;101632.84;4949988;28;20047;-82
2023/05/20 11:10:57;;;;;;;6.55;2.47;;;;;;;17.53;52.39;101623.25;4948966;29;20035;-86
2023/05/20 11:13:25;;;;;;;2.60;1.95;;;;;;;17.16;53.68;101620.53;4932401;29;20113;-85
2023/05/20 11:15:51;;;;;;;3.45;1.70;;;;;;;17.02;54.29;101623.47;4949206;29;20051;-81
2023/05/20 11:18:18;;;;;;;3.30;1.88;;;;;;;16.95;55.53;101621.88;4932584;29;20043;-81
2023/05/20 11:20:46;;;;;;;2.33;1.98;;;;;;;16.98;55.07;101621.78;4949242;29;20047;-83
2023/05/20 11:23:15;;;;;;;6.35;2.10;;;;;;;16.98;55.33;101614.72;4948970;29;20050;-81
2023/05/20 11:25:41;;;;;;;2.03;1.83;;;;;;;17.08;54.59;101617.16;4922386;29;20055;-83
2023/05/20 11:28:13;;;;;;;2.33;2.00;;;;;;;17.09;54.66;101616.28;4925824;29;20103;-81
2023/05/20 11:30:42;;;;;;;6.40;2.08;;;;;;;16.89;55.34;101614.88;4903824;29;20438;-82